createdAt,value
2019-04-11T00:01:44.940Z,7.80
2019-04-11T00:04:08.247Z,7.90
2019-04-11T00:06:36.593Z,7.80
2019-04-11T00:09:06.082Z,7.80
2019-04-11T00:11:34.271Z,7.80
2019-04-11T00:14:03.262Z,7.80
2019-04-11T00:16:32.922Z,7.80
2019-04-11T00:19:00.993Z,7.80
2019-04-11T00:21:30.847Z,7.70
2019-04-11T00:23:58.642Z,7.70
2019-04-11T00:26:28.462Z,7.70
2019-04-11T00:28:56.275Z,7.70
2019-04-11T00:31:25.185Z,7.70
2019-04-11T00:33:54.254Z,7.70
2019-04-11T00:36:22.668Z,7.50
2019-04-11T00:38:51.500Z,7.50
2019-04-11T00:41:20.362Z,7.50
2019-04-11T00:43:50.363Z,7.40
2019-04-11T00:46:18.818Z,7.30
2019-04-11T00:48:48.095Z,7.30
2019-04-11T00:51:17.653Z,7.30
2019-04-11T00:53:46.497Z,7.20
2019-04-11T00:56:14.164Z,7.10
2019-04-11T00:58:43.743Z,7.10
2019-04-11T01:01:12.587Z,7.10
2019-04-11T01:03:41.434Z,7.00
2019-04-11T01:08:40.453Z,6.90
2019-04-11T01:11:09.890Z,7.00
2019-04-11T01:13:44.583Z,7.00
2019-04-11T01:16:11.205Z,7.00
2019-04-11T01:18:40.362Z,7.00
2019-04-11T01:21:08.472Z,6.90
2019-04-11T01:23:38.053Z,6.80
2019-04-11T01:26:06.899Z,6.80
2019-04-11T01:28:36.521Z,6.90
2019-04-11T01:31:06.408Z,6.90
2019-04-11T01:33:35.922Z,6.80
2019-04-11T01:36:04.850Z,6.90
2019-04-11T01:38:34.546Z,6.70
2019-04-11T01:41:02.554Z,6.70
2019-04-11T01:43:32.416Z,6.80
2019-04-11T01:46:02.128Z,6.70
2019-04-11T01:48:35.803Z,6.60
2019-04-11T01:51:05.372Z,6.60
2019-04-11T01:53:33.510Z,6.60
2019-04-11T01:56:03.115Z,6.60
2019-04-11T01:58:31.312Z,6.50
2019-04-11T02:01:00.781Z,6.50
2019-04-11T02:03:30.881Z,6.50
2019-04-11T02:05:59.686Z,6.50
2019-04-11T02:08:29.268Z,6.50
2019-04-11T02:10:59.251Z,6.40
2019-04-11T02:13:27.972Z,6.40
2019-04-11T02:15:57.304Z,6.40
2019-04-11T02:18:25.574Z,6.40
2019-04-11T02:20:54.307Z,6.30
2019-04-11T02:23:23.326Z,6.30
2019-04-11T02:25:52.470Z,6.30
2019-04-11T02:28:20.693Z,6.30
2019-04-11T02:30:51.254Z,6.20
2019-04-11T02:33:18.586Z,6.10
2019-04-11T02:35:49.207Z,6.00
2019-04-11T02:38:16.827Z,6.10
2019-04-11T02:40:47.450Z,6.10
2019-04-11T02:43:15.873Z,6.10
2019-04-11T02:45:57.017Z,6.00
2019-04-11T02:48:13.652Z,6.00
2019-04-11T02:50:42.720Z,6.10
2019-04-11T02:53:09.884Z,6.00
2019-04-11T02:55:38.720Z,6.10
2019-04-11T02:58:08.311Z,5.90
2019-04-11T03:00:37.615Z,5.90
2019-04-11T03:03:07.903Z,5.90
2019-04-11T03:05:36.792Z,5.80
2019-04-11T03:08:07.799Z,5.80
2019-04-11T03:10:33.611Z,5.70
2019-04-11T03:13:02.787Z,5.70
2019-04-11T03:15:44.668Z,5.70
2019-04-11T03:18:02.081Z,5.70
2019-04-11T03:20:34.887Z,5.60
2019-04-11T03:23:04.053Z,5.60
2019-04-11T03:25:28.017Z,5.60
2019-04-11T03:27:56.933Z,5.50
2019-04-11T03:30:40.818Z,5.50
2019-04-11T03:38:12.486Z,5.50
2019-04-11T03:40:36.952Z,5.50
2019-04-11T03:43:04.319Z,5.50
2019-04-11T03:45:38.520Z,5.50
2019-04-11T03:48:01.729Z,5.40
2019-04-11T03:50:18.910Z,5.40
2019-04-11T03:52:45.000Z,5.30
2019-04-11T03:55:13.612Z,5.30
2019-04-11T03:57:42.219Z,5.40
2019-04-11T04:00:12.625Z,5.40
2019-04-11T04:02:41.319Z,5.40
2019-04-11T04:05:10.639Z,5.30
2019-04-11T04:07:38.246Z,5.20
2019-04-11T04:10:09.190Z,5.20
2019-04-11T04:12:37.780Z,5.20
2019-04-11T04:15:10.765Z,5.20
2019-04-11T04:17:43.526Z,5.20
2019-04-11T04:20:15.148Z,5.20
2019-04-11T04:22:46.248Z,5.10
2019-04-11T04:25:14.294Z,5.10
2019-04-11T04:27:42.955Z,5.00
2019-04-11T04:30:13.156Z,5.10
2019-04-11T04:32:40.536Z,5.00
2019-04-11T04:35:12.765Z,5.00
2019-04-11T04:37:38.823Z,5.00
2019-04-11T04:40:25.475Z,5.00
2019-04-11T04:42:40.366Z,4.90
2019-04-11T04:45:05.078Z,4.90
2019-04-11T04:47:42.381Z,4.90
2019-04-11T04:50:04.546Z,4.70
2019-04-11T04:52:32.625Z,4.70
2019-04-11T04:55:02.129Z,4.70
2019-04-11T04:57:29.816Z,4.70
2019-04-11T04:59:59.610Z,4.70
2019-04-11T05:02:28.285Z,4.70
2019-04-11T05:04:56.625Z,4.70
2019-04-11T05:07:27.526Z,4.70
2019-04-11T05:09:54.570Z,4.80
2019-04-11T05:12:22.754Z,4.70
2019-04-11T05:14:51.990Z,4.70
2019-04-11T05:17:20.445Z,4.70
2019-04-11T05:19:49.289Z,4.80
2019-04-11T05:22:19.049Z,4.80
2019-04-11T05:24:47.699Z,4.90
2019-04-11T05:27:17.421Z,4.80
2019-04-11T05:29:45.904Z,4.90
2019-04-11T05:32:15.476Z,4.90
2019-04-11T05:34:43.782Z,5.00
2019-04-11T05:37:13.182Z,5.00
2019-04-11T05:39:42.446Z,5.00
2019-04-11T05:42:11.265Z,5.10
2019-04-11T05:44:40.315Z,5.20
2019-04-11T05:49:41.631Z,5.20
2019-04-11T05:52:06.315Z,5.20
2019-04-11T05:54:36.486Z,5.30
2019-04-11T05:57:03.996Z,5.30
2019-04-11T05:59:32.860Z,5.20
2019-04-11T06:02:06.775Z,5.20
2019-04-11T06:04:32.330Z,5.30
2019-04-11T06:09:34.802Z,5.40
2019-04-11T06:12:03.893Z,5.40
2019-04-11T06:14:35.365Z,5.50
2019-04-11T06:17:05.194Z,5.50
2019-04-11T06:19:39.681Z,5.60
2019-04-11T06:22:08.664Z,5.70
2019-04-11T06:24:37.038Z,5.70
2019-04-11T06:27:08.841Z,5.70
2019-04-11T06:29:36.977Z,5.70
2019-04-11T06:32:05.719Z,5.80
2019-04-11T06:34:35.467Z,5.80
2019-04-11T06:37:05.645Z,5.90
2019-04-11T06:39:35.690Z,5.90
2019-04-11T06:42:07.648Z,6.00
2019-04-11T06:44:39.763Z,6.00
2019-04-11T06:47:12.404Z,6.10
2019-04-11T06:49:43.210Z,6.10
2019-04-11T06:52:12.763Z,6.10
2019-04-11T06:54:43.378Z,6.20
2019-04-11T06:57:13.955Z,6.30
2019-04-11T06:59:42.973Z,6.30
2019-04-11T07:02:16.460Z,6.40
2019-04-11T07:04:41.688Z,6.50
2019-04-11T07:07:11.085Z,6.60
2019-04-11T07:09:41.154Z,6.70
2019-04-11T07:12:11.720Z,6.80
2019-04-11T07:14:43.310Z,6.90
2019-04-11T07:17:16.922Z,6.90
2019-04-11T07:19:51.598Z,7.00
2019-04-11T07:22:25.956Z,7.10
2019-04-11T07:25:00.263Z,7.20
2019-04-11T07:27:29.852Z,7.20
2019-04-11T07:29:58.709Z,7.20
2019-04-11T07:32:27.853Z,7.30
2019-04-11T07:35:02.357Z,7.30
2019-04-11T07:37:32.422Z,7.40
2019-04-11T07:40:05.654Z,7.50
2019-04-11T07:42:39.081Z,7.60
2019-04-11T07:45:14.165Z,7.70
2019-04-11T07:47:43.915Z,7.70
2019-04-11T07:50:15.601Z,7.80
2019-04-11T07:52:42.590Z,7.90
2019-04-11T07:55:10.969Z,8.00
2019-04-11T07:57:40.384Z,8.10
2019-04-11T08:00:09.974Z,8.10
2019-04-11T08:02:40.534Z,8.20
2019-04-11T08:05:15.591Z,8.20
2019-04-11T08:07:51.366Z,8.40
2019-04-11T08:10:22.805Z,8.50
2019-04-11T08:12:50.656Z,8.50
2019-04-11T08:15:25.850Z,8.50
2019-04-11T08:17:54.627Z,8.60
2019-04-11T08:20:29.107Z,8.70
2019-04-11T08:22:59.070Z,8.80
2019-04-11T08:28:00.696Z,9.10
2019-04-11T08:30:26.818Z,9.10
2019-04-11T08:32:56.500Z,9.10
2019-04-11T08:35:33.146Z,9.10
2019-04-11T08:38:07.893Z,9.20
2019-04-11T08:40:41.489Z,9.20
2019-04-11T08:43:15.197Z,9.30
2019-04-11T08:45:44.433Z,9.40
2019-04-11T08:50:42.805Z,9.40
2019-04-11T08:53:16.303Z,9.50
2019-04-11T08:55:55.679Z,9.50
2019-04-11T08:58:20.486Z,9.60
2019-04-11T09:00:49.040Z,9.70
2019-04-11T09:05:49.218Z,9.80
2019-04-11T09:08:18.349Z,9.80
2019-04-11T09:10:52.567Z,9.90
2019-04-11T09:13:27.131Z,9.90
2019-04-11T09:16:01.402Z,10.00
2019-04-11T09:18:30.235Z,10.00
2019-04-11T09:21:02.528Z,10.10
2019-04-11T09:23:32.110Z,10.20
2019-04-11T09:26:01.537Z,10.20
2019-04-11T09:28:29.823Z,10.30
2019-04-11T09:31:06.710Z,10.30
2019-04-11T09:33:39.677Z,10.40
2019-04-11T09:36:13.446Z,10.40
2019-04-11T09:38:42.379Z,10.30
2019-04-11T09:41:10.788Z,10.40
2019-04-11T09:43:40.141Z,10.50
2019-04-11T09:46:08.499Z,10.40
2019-04-11T09:48:38.204Z,10.60
2019-04-11T09:51:13.559Z,10.80
2019-04-11T09:53:42.940Z,10.70
2019-04-11T09:56:16.964Z,10.80
2019-04-11T09:58:49.719Z,10.90
2019-04-11T10:01:21.234Z,11.00
2019-04-11T10:03:50.854Z,11.10
2019-04-11T10:06:19.679Z,11.10
2019-04-11T10:08:53.412Z,11.10
2019-04-11T10:11:24.142Z,11.20
2019-04-11T10:13:53.279Z,11.20
2019-04-11T10:16:24.133Z,11.20
2019-04-11T10:18:57.829Z,11.20
2019-04-11T10:21:26.496Z,11.10
2019-04-11T10:23:55.364Z,11.30
2019-04-11T10:26:25.739Z,11.40
2019-04-11T10:29:00.318Z,11.50
2019-04-11T10:31:30.561Z,11.30
2019-04-11T10:34:06.109Z,11.60
2019-04-11T10:36:34.951Z,11.40
2019-04-11T10:39:06.926Z,11.50
2019-04-11T10:41:35.727Z,11.50
2019-04-11T10:44:05.454Z,11.60
2019-04-11T10:46:39.667Z,11.50
2019-04-11T10:49:09.458Z,11.70
2019-04-11T10:51:43.519Z,11.70
2019-04-11T10:54:13.447Z,11.90
2019-04-11T10:56:43.175Z,11.90
2019-04-11T10:59:10.926Z,11.90
2019-04-11T11:01:40.661Z,12.10
2019-04-11T11:04:09.546Z,12.10
2019-04-11T11:06:38.297Z,11.90
2019-04-11T11:09:08.013Z,12.10
2019-04-11T11:11:37.213Z,12.20
2019-04-11T11:14:06.642Z,12.30
2019-04-11T11:16:39.413Z,12.40
2019-04-11T11:19:39.164Z,12.30
2019-04-11T11:21:38.780Z,12.40
2019-04-11T11:24:11.833Z,12.40
2019-04-11T11:26:41.164Z,12.30
2019-04-11T11:29:15.831Z,12.40
2019-04-11T11:31:44.855Z,12.40
2019-04-11T11:34:17.318Z,12.50
2019-04-11T11:36:43.749Z,12.50
2019-04-11T11:39:15.073Z,12.60
2019-04-11T11:41:48.937Z,12.70
2019-04-11T11:44:19.150Z,12.70
2019-04-11T11:46:50.077Z,12.80
2019-04-11T11:49:36.283Z,12.90
2019-04-11T11:51:47.786Z,12.90
2019-04-11T11:54:16.200Z,12.90
2019-04-11T11:56:45.059Z,12.70
2019-04-11T11:59:13.913Z,13.10
2019-04-11T12:01:49.339Z,13.10
2019-04-11T12:04:22.703Z,13.20
2019-04-11T12:06:50.649Z,13.20
2019-04-11T12:09:22.465Z,13.30
2019-04-11T12:11:54.343Z,13.40
2019-04-11T12:14:22.829Z,13.40
2019-04-11T12:16:58.718Z,13.50
2019-04-11T12:19:23.611Z,13.60
2019-04-11T12:21:52.224Z,13.40
2019-04-11T12:24:26.574Z,13.60
2019-04-11T12:27:00.128Z,13.60
2019-04-11T12:29:30.615Z,13.80
2019-04-11T12:31:59.919Z,13.80
2019-04-11T12:34:30.469Z,13.80
2019-04-11T12:37:00.124Z,13.90
2019-04-11T12:39:30.809Z,14.20
2019-04-11T12:41:59.649Z,13.60
2019-04-11T12:44:29.487Z,13.60
2019-04-11T12:47:07.546Z,13.50
2019-04-11T12:49:37.215Z,13.80
2019-04-11T12:52:11.475Z,14.00
2019-04-11T12:54:40.327Z,14.10
2019-04-11T12:57:14.141Z,14.10
2019-04-11T12:59:42.991Z,14.30
2019-04-11T13:02:17.333Z,14.30
2019-04-11T13:04:46.178Z,14.70
2019-04-11T13:07:18.993Z,15.00
2019-04-11T13:09:48.639Z,14.90
2019-04-11T13:12:21.233Z,14.80
2019-04-11T13:14:50.095Z,14.70
2019-04-11T13:17:19.696Z,14.80
2019-04-11T13:20:04.277Z,14.80
2019-04-11T13:22:22.882Z,14.70
2019-04-11T13:24:51.703Z,14.90
2019-04-11T13:27:20.553Z,14.50
2019-04-11T13:29:49.401Z,14.90
2019-04-11T13:32:18.311Z,14.60
2019-04-11T13:34:48.787Z,14.80
2019-04-11T13:37:20.595Z,15.00
2019-04-11T13:39:49.427Z,15.10
2019-04-11T13:42:22.069Z,15.40
2019-04-11T13:44:51.667Z,15.10
2019-04-11T13:47:24.221Z,15.40
2019-04-11T13:49:53.078Z,15.60
2019-04-11T13:52:23.702Z,15.60
2019-04-11T13:54:57.424Z,15.60
2019-04-11T13:57:26.253Z,15.30
2019-04-11T14:00:01.579Z,15.50
2019-04-11T14:02:31.127Z,15.40
2019-04-11T14:04:59.987Z,15.00
2019-04-11T14:07:30.503Z,14.80
2019-04-11T14:10:01.511Z,15.00
2019-04-11T14:12:28.236Z,15.40
2019-04-11T14:14:57.090Z,15.60
2019-04-11T14:17:26.698Z,15.90
2019-04-11T14:19:55.523Z,15.80
2019-04-11T14:22:28.945Z,16.00
2019-04-11T14:24:53.939Z,16.20
2019-04-11T14:27:22.776Z,16.20
2019-04-11T14:29:52.354Z,16.00
2019-04-11T14:32:23.702Z,16.20
2019-04-11T14:34:50.945Z,15.70
2019-04-11T14:37:19.786Z,15.40
2019-04-11T14:39:48.647Z,15.10
2019-04-11T14:42:21.282Z,15.40
2019-04-11T14:44:50.106Z,15.60
2019-04-11T14:47:24.478Z,15.70
2019-04-11T14:49:54.069Z,15.80
2019-04-11T14:52:25.529Z,15.90
2019-04-11T14:54:54.365Z,16.20
2019-04-11T14:57:24.191Z,15.80
2019-04-11T14:59:54.189Z,15.90
2019-04-11T15:02:20.931Z,15.50
2019-04-11T15:04:55.185Z,15.40
2019-04-11T15:07:24.020Z,15.70
2019-04-11T15:09:53.749Z,16.10
2019-04-11T15:12:24.377Z,15.60
2019-04-11T15:14:56.964Z,15.50
2019-04-11T15:17:27.661Z,16.00
2019-04-11T15:19:56.495Z,15.70
2019-04-11T15:22:30.917Z,15.80
2019-04-11T15:25:05.743Z,16.00
2019-04-11T15:27:38.532Z,16.10
2019-04-11T15:30:07.637Z,16.20
2019-04-11T15:32:40.394Z,16.30
2019-04-11T15:35:09.978Z,16.10
2019-04-11T15:37:38.833Z,15.70
2019-04-11T15:40:07.687Z,15.70
2019-04-11T15:42:40.501Z,15.40
2019-04-11T15:45:20.129Z,15.60
2019-04-11T15:47:50.015Z,15.80
2019-04-11T15:50:24.145Z,15.50
2019-04-11T15:52:52.986Z,15.30
2019-04-11T15:55:25.766Z,15.20
2019-04-11T15:57:54.608Z,15.40
2019-04-11T16:00:24.298Z,15.40
2019-04-11T16:02:53.875Z,15.60
2019-04-11T16:05:26.633Z,15.80
2019-04-11T16:08:01.095Z,16.10
2019-04-11T16:10:30.683Z,15.80
2019-04-11T16:13:02.446Z,15.90
2019-04-11T16:15:31.334Z,15.90
2019-04-11T16:18:05.751Z,15.70
2019-04-11T16:20:34.580Z,15.80
2019-04-11T16:23:05.007Z,15.60
2019-04-11T16:25:34.617Z,15.70
2019-04-11T16:28:08.211Z,15.50
2019-04-11T16:30:39.639Z,15.40
2019-04-11T16:33:06.494Z,15.10
2019-04-11T16:35:41.584Z,15.00
2019-04-11T16:38:11.167Z,15.20
2019-04-11T16:40:40.032Z,15.10
2019-04-11T16:43:09.615Z,14.70
2019-04-11T16:45:38.455Z,14.40
2019-04-11T16:48:07.299Z,14.40
2019-04-11T16:50:36.164Z,14.20
2019-04-11T16:53:05.003Z,14.00
2019-04-11T16:55:36.547Z,14.10
2019-04-11T16:58:02.732Z,13.70
2019-04-11T17:00:31.570Z,13.50
2019-04-11T17:03:01.210Z,13.40
2019-04-11T17:05:30.764Z,13.30
2019-04-11T17:08:01.125Z,13.30
2019-04-11T17:10:35.618Z,13.40
2019-04-11T17:13:05.199Z,13.10
2019-04-11T17:15:34.039Z,13.10
2019-04-11T17:18:03.289Z,13.00
2019-04-11T17:20:35.697Z,12.80
2019-04-11T17:23:01.337Z,12.90
2019-04-11T17:25:30.194Z,12.80
2019-04-11T17:27:59.780Z,12.80
2019-04-11T17:32:58.070Z,12.70
2019-04-11T17:35:26.923Z,12.50
2019-04-11T17:37:55.767Z,12.50
2019-04-11T17:40:25.361Z,12.40
2019-04-11T17:42:54.211Z,12.30
2019-04-11T17:45:23.059Z,12.20
2019-04-11T17:47:51.913Z,12.10
2019-04-11T17:50:20.750Z,12.00
2019-04-11T17:52:49.595Z,12.00
2019-04-11T17:55:18.441Z,12.00
2019-04-11T17:57:47.282Z,11.80
2019-04-11T18:00:16.127Z,11.70
2019-04-11T18:02:46.368Z,11.70
2019-04-11T18:05:16.708Z,11.60
2019-04-11T18:07:46.858Z,11.50
2019-04-11T18:10:12.236Z,11.50
2019-04-11T18:12:41.085Z,11.50
2019-04-11T18:15:09.932Z,11.40
2019-04-11T18:17:38.776Z,11.30
2019-04-11T18:20:07.670Z,11.30
2019-04-11T18:22:36.486Z,11.30
2019-04-11T18:25:05.364Z,11.30
2019-04-11T18:27:34.214Z,11.30
2019-04-11T18:30:03.063Z,11.20
2019-04-11T18:32:31.895Z,11.20
2019-04-11T18:35:02.389Z,11.10
2019-04-11T18:37:32.105Z,11.10
2019-04-11T18:39:59.247Z,11.00
2019-04-11T18:42:28.845Z,11.00
2019-04-11T18:44:57.687Z,11.00
2019-04-11T18:47:26.564Z,11.00
2019-04-11T18:49:55.396Z,10.80
2019-04-11T18:52:25.434Z,10.70
2019-04-11T18:54:53.110Z,10.70
2019-04-11T18:57:21.951Z,10.70
2019-04-11T18:59:50.796Z,10.60
2019-04-11T19:02:20.376Z,10.60
2019-04-11T19:04:49.975Z,10.50
2019-04-11T19:07:27.572Z,10.50
2019-04-11T19:09:47.681Z,10.40
2019-04-11T19:12:17.299Z,10.40
2019-04-11T19:14:46.551Z,10.40
2019-04-11T19:17:15.837Z,10.20
2019-04-11T19:19:43.849Z,10.30
2019-04-11T19:22:13.448Z,10.20
2019-04-11T19:24:43.176Z,10.20
2019-04-11T19:27:14.047Z,10.30
2019-04-11T19:29:40.876Z,10.20
2019-04-11T19:32:09.718Z,10.10
2019-04-11T19:34:38.595Z,10.10
2019-04-11T19:37:11.621Z,10.10
2019-04-11T19:39:36.324Z,10.10
2019-04-11T19:42:08.797Z,10.00
2019-04-11T19:44:35.173Z,9.90
2019-04-11T19:47:02.855Z,9.90
2019-04-11T19:49:31.719Z,9.80
2019-04-11T19:52:01.476Z,9.90
2019-04-11T19:54:32.755Z,9.80
2019-04-11T19:57:02.241Z,9.80
2019-04-11T19:59:31.114Z,9.80
2019-04-11T20:01:59.962Z,9.80
2019-04-11T20:04:28.822Z,9.70
2019-04-11T20:06:57.657Z,9.70
2019-04-11T20:09:27.272Z,9.70
2019-04-11T20:11:57.972Z,9.60
2019-04-11T20:14:25.747Z,9.70
2019-04-11T20:16:54.564Z,9.60
2019-04-11T20:19:27.185Z,9.50
2019-04-11T20:21:52.274Z,9.50
2019-04-11T20:24:21.107Z,9.50
2019-04-11T20:26:50.875Z,9.40
2019-04-11T20:29:21.447Z,9.30
2019-04-11T20:31:48.403Z,9.20
2019-04-11T20:34:26.854Z,9.20
2019-04-11T20:36:46.099Z,9.20
2019-04-11T20:39:15.832Z,9.10
2019-04-11T20:41:43.813Z,9.20
2019-04-11T20:44:12.655Z,9.10
2019-04-11T20:46:41.534Z,9.00
2019-04-11T20:49:11.108Z,9.10
2019-04-11T20:51:39.945Z,9.10
2019-04-11T20:54:08.800Z,9.10
2019-04-11T20:56:39.921Z,9.00
2019-04-11T20:59:10.056Z,9.00
2019-04-11T21:01:36.079Z,9.00
2019-04-11T21:04:04.910Z,9.00
2019-04-11T21:06:33.761Z,9.00
2019-04-11T21:09:03.610Z,9.00
2019-04-11T21:11:36.527Z,8.90
2019-04-11T21:14:01.069Z,9.00
2019-04-11T21:16:29.906Z,8.80
2019-04-11T21:18:58.737Z,8.80
2019-04-11T21:21:28.308Z,8.70
2019-04-11T21:23:58.010Z,8.80
2019-04-11T21:26:28.494Z,8.70
2019-04-11T21:28:58.727Z,8.70
2019-04-11T21:31:23.688Z,8.70
2019-04-11T21:33:52.532Z,8.70
2019-04-11T21:36:21.366Z,8.80
2019-04-11T21:38:50.211Z,8.70
2019-04-11T21:41:19.056Z,8.70
2019-04-11T21:43:48.623Z,8.60
2019-04-11T21:46:17.456Z,8.50
2019-04-11T21:48:47.034Z,8.40
2019-04-11T21:51:15.861Z,8.50
2019-04-11T21:53:45.388Z,8.40
2019-04-11T21:56:15.984Z,8.30
2019-04-11T21:58:42.381Z,8.30
2019-04-11T22:01:11.207Z,8.30
2019-04-11T22:03:40.034Z,8.40
2019-04-11T22:06:08.873Z,8.50
2019-04-11T22:08:37.734Z,8.40
2019-04-11T22:11:09.847Z,8.50
2019-04-11T22:13:35.408Z,8.40
2019-04-11T22:16:04.238Z,8.30
2019-04-11T22:18:33.088Z,8.30
2019-04-11T22:21:01.916Z,8.40
2019-04-11T22:23:30.741Z,8.30
2019-04-11T22:25:59.566Z,8.20
2019-04-11T22:30:57.844Z,8.00
2019-04-11T22:33:32.319Z,7.90
2019-04-11T22:36:01.171Z,7.80
2019-04-11T22:38:31.095Z,7.80
2019-04-11T22:41:01.771Z,7.80
2019-04-11T22:43:28.439Z,7.80
2019-04-11T22:45:57.284Z,7.80
2019-04-11T22:48:26.117Z,7.70
2019-04-11T22:50:54.937Z,7.70
2019-04-11T22:53:23.797Z,7.60
2019-04-11T22:55:52.616Z,7.70
2019-04-11T22:58:22.175Z,7.40
2019-04-11T23:00:51.711Z,7.40
2019-04-11T23:03:21.716Z,7.40
2019-04-11T23:05:50.541Z,7.30
2019-04-11T23:08:20.122Z,7.30
2019-04-11T23:10:48.942Z,7.20
2019-04-11T23:13:18.518Z,7.10
2019-04-11T23:15:47.340Z,7.20
2019-04-11T23:18:16.178Z,7.20
2019-04-11T23:20:45.014Z,7.20
2019-04-11T23:23:14.578Z,7.20
2019-04-11T23:25:43.415Z,7.00
2019-04-11T23:28:15.584Z,6.90
2019-04-11T23:30:41.123Z,6.90
2019-04-11T23:33:09.928Z,6.80
2019-04-11T23:35:38.759Z,6.80
2019-04-11T23:38:08.344Z,6.80
2019-04-11T23:40:37.916Z,6.70
2019-04-11T23:43:06.753Z,6.80
2019-04-11T23:45:35.614Z,6.50
2019-04-11T23:48:04.438Z,6.60
2019-04-11T23:50:33.284Z,6.60
2019-04-11T23:53:02.148Z,6.60
2019-04-11T23:55:31.013Z,6.70
2019-04-11T23:58:01.603Z,6.70
